createdAt,value
2023-07-09T00:01:28.383Z,5.70
2023-07-09T00:03:55.367Z,5.90
2023-07-09T00:06:22.854Z,5.30
2023-07-09T00:08:50.692Z,5.50
2023-07-09T00:11:18.256Z,5.50
2023-07-09T00:13:45.778Z,5.80
2023-07-09T00:16:22.554Z,5.47
2023-07-09T00:18:50.175Z,6.03
2023-07-09T00:21:19.546Z,5.90
2023-07-09T00:23:47.897Z,5.78
2023-07-09T00:26:15.892Z,6.18
2023-07-09T00:28:44.515Z,6.22
2023-07-09T00:31:16.651Z,7.30
2023-07-09T00:33:47.560Z,6.60
2023-07-09T00:36:27.601Z,6.43
2023-07-09T00:38:54.517Z,6.82
2023-07-09T00:41:24.304Z,6.43
2023-07-09T00:43:53.058Z,6.20
2023-07-09T00:46:27.363Z,6.68
2023-07-09T00:49:01.284Z,6.88
2023-07-09T00:51:30.113Z,6.65
2023-07-09T00:54:02.268Z,6.80
2023-07-09T00:56:33.493Z,6.73
2023-07-09T00:59:05.795Z,6.55
2023-07-09T01:01:33.911Z,6.80
2023-07-09T01:04:04.520Z,6.47
2023-07-09T01:06:48.882Z,6.70
2023-07-09T01:09:16.743Z,7.60
2023-07-09T01:11:43.634Z,6.82
2023-07-09T01:14:14.582Z,7.07
2023-07-09T01:16:58.141Z,6.50
2023-07-09T01:19:29.478Z,7.15
2023-07-09T01:22:01.387Z,7.00
2023-07-09T01:25:00.792Z,6.53
2023-07-09T01:27:34.602Z,6.35
2023-07-09T01:30:05.287Z,6.32
2023-07-09T01:32:32.539Z,6.72
2023-07-09T01:35:05.878Z,6.50
2023-07-09T01:37:35.760Z,6.30
2023-07-09T01:40:10.836Z,6.38
2023-07-09T01:42:47.904Z,6.80
2023-07-09T01:45:16.533Z,6.60
2023-07-09T01:47:45.020Z,7.07
2023-07-09T01:50:12.262Z,7.90
2023-07-09T01:52:43.160Z,7.20
2023-07-09T01:55:12.122Z,7.40
2023-07-09T01:57:42.134Z,7.35
2023-07-09T02:00:12.560Z,6.63
2023-07-09T02:02:46.875Z,6.93
2023-07-09T02:05:16.681Z,6.97
2023-07-09T02:07:43.697Z,7.28
2023-07-09T02:10:11.977Z,6.90
2023-07-09T02:12:39.144Z,6.80
2023-07-09T02:15:07.071Z,7.82
2023-07-09T02:17:33.874Z,7.20
2023-07-09T02:20:00.764Z,7.35
2023-07-09T02:22:27.792Z,7.20
2023-07-09T02:24:54.719Z,7.27
2023-07-09T02:27:22.953Z,7.28
2023-07-09T02:29:50.178Z,7.07
2023-07-09T02:32:27.847Z,6.93
2023-07-09T02:34:56.204Z,8.30
2023-07-09T02:37:27.239Z,7.23
2023-07-09T02:39:54.894Z,7.80
2023-07-09T02:42:24.011Z,7.68
2023-07-09T02:44:51.904Z,7.80
2023-07-09T02:47:19.821Z,7.35
2023-07-09T02:49:47.353Z,7.60
2023-07-09T02:52:14.757Z,7.90
2023-07-09T02:54:41.896Z,8.43
2023-07-09T02:57:10.157Z,8.68
2023-07-09T02:59:37.127Z,7.78
2023-07-09T03:02:04.708Z,8.43
2023-07-09T03:04:32.505Z,8.30
2023-07-09T03:07:01.152Z,7.90
2023-07-09T03:09:29.065Z,8.30
2023-07-09T03:11:56.918Z,9.05
2023-07-09T03:14:24.105Z,8.93
2023-07-09T03:16:51.271Z,9.02
2023-07-09T03:19:18.608Z,9.82
2023-07-09T03:21:45.539Z,9.50
2023-07-09T03:24:12.501Z,9.32
2023-07-09T03:26:39.437Z,9.80
2023-07-09T03:29:06.413Z,9.10
2023-07-09T03:31:36.287Z,9.13
2023-07-09T03:34:03.764Z,9.10
2023-07-09T03:36:31.142Z,9.25
2023-07-09T03:38:58.191Z,9.63
2023-07-09T03:41:25.779Z,9.23
2023-07-09T03:43:54.630Z,10.00
2023-07-09T03:46:21.864Z,10.57
2023-07-09T03:48:50.515Z,10.07
2023-07-09T03:51:18.540Z,10.67
2023-07-09T03:53:45.685Z,9.88
2023-07-09T03:56:12.633Z,10.90
2023-07-09T03:58:39.851Z,11.85
2023-07-09T04:01:07.068Z,10.80
2023-07-09T04:03:34.172Z,12.20
2023-07-09T04:06:01.427Z,10.73
2023-07-09T04:08:28.650Z,9.85
2023-07-09T04:10:59.684Z,10.15
2023-07-09T04:13:28.349Z,10.05
2023-07-09T04:15:56.555Z,10.17
2023-07-09T04:18:23.645Z,11.07
2023-07-09T04:20:51.614Z,10.23
2023-07-09T04:23:19.785Z,10.40
2023-07-09T04:25:46.918Z,10.55
2023-07-09T04:28:14.402Z,9.60
2023-07-09T04:30:49.096Z,10.68
2023-07-09T04:33:18.627Z,10.60
2023-07-09T04:35:47.128Z,11.30
2023-07-09T04:38:14.764Z,10.05
2023-07-09T04:40:42.116Z,11.17
2023-07-09T04:43:09.222Z,10.65
2023-07-09T04:45:36.155Z,10.10
2023-07-09T04:48:03.661Z,9.60
2023-07-09T04:50:30.562Z,10.07
2023-07-09T04:52:57.545Z,9.20
2023-07-09T04:55:24.444Z,9.73
2023-07-09T04:57:51.547Z,9.88
2023-07-09T05:00:18.740Z,9.95
2023-07-09T05:02:45.934Z,10.05
2023-07-09T05:05:13.094Z,10.47
2023-07-09T05:07:40.676Z,10.35
2023-07-09T05:10:08.088Z,10.32
2023-07-09T05:12:35.039Z,8.77
2023-07-09T05:15:02.089Z,9.50
2023-07-09T05:17:28.994Z,9.10
2023-07-09T05:19:55.977Z,9.48
2023-07-09T05:22:22.867Z,9.85
2023-07-09T05:24:49.912Z,11.13
2023-07-09T05:27:16.758Z,11.65
2023-07-09T05:29:43.668Z,10.30
2023-07-09T05:32:10.497Z,10.98
2023-07-09T05:34:37.298Z,11.43
2023-07-09T05:37:04.462Z,10.63
2023-07-09T05:39:31.389Z,10.07
2023-07-09T05:41:58.257Z,12.23
2023-07-09T05:44:25.057Z,12.95
2023-07-09T05:46:52.203Z,13.82
2023-07-09T05:49:19.392Z,13.35
2023-07-09T05:51:46.229Z,12.88
2023-07-09T05:54:13.334Z,12.83
2023-07-09T05:56:40.413Z,13.88
2023-07-09T05:59:07.354Z,13.73
2023-07-09T06:01:34.230Z,13.73
2023-07-09T06:04:01.428Z,14.43
2023-07-09T06:06:28.605Z,13.73
2023-07-09T06:08:55.552Z,14.82
2023-07-09T06:11:22.900Z,14.52
2023-07-09T06:13:50.088Z,14.57
2023-07-09T06:16:18.577Z,15.43
2023-07-09T06:18:45.644Z,15.10
2023-07-09T06:21:13.881Z,15.98
2023-07-09T06:23:40.810Z,15.20
2023-07-09T06:26:07.815Z,15.25
2023-07-09T06:28:34.982Z,15.90
2023-07-09T06:31:02.103Z,14.80
2023-07-09T06:33:30.002Z,15.10
2023-07-09T06:36:01.995Z,14.35
2023-07-09T06:38:30.137Z,14.38
2023-07-09T06:40:58.164Z,14.05
2023-07-09T06:43:25.139Z,13.27
2023-07-09T06:45:57.313Z,13.65
2023-07-09T06:48:25.415Z,13.43
2023-07-09T06:50:54.441Z,11.90
2023-07-09T06:53:21.875Z,13.50
2023-07-09T06:55:50.258Z,11.90
2023-07-09T06:58:20.345Z,12.70
2023-07-09T07:00:49.953Z,13.70
2023-07-09T07:03:17.454Z,13.98
2023-07-09T07:05:50.373Z,13.57
2023-07-09T07:08:20.481Z,13.30
2023-07-09T07:10:49.589Z,13.27
2023-07-09T07:13:16.893Z,13.10
2023-07-09T07:15:49.626Z,12.82
2023-07-09T07:18:16.542Z,12.45
2023-07-09T07:20:44.352Z,11.90
2023-07-09T07:23:12.063Z,11.93
2023-07-09T07:25:39.051Z,11.60
2023-07-09T07:28:05.915Z,11.70
2023-07-09T07:30:32.875Z,11.13
2023-07-09T07:33:00.148Z,10.40
2023-07-09T07:35:27.117Z,9.65
2023-07-09T07:37:54.144Z,9.52
2023-07-09T07:40:21.046Z,10.63
2023-07-09T07:42:47.994Z,11.30
2023-07-09T07:45:14.887Z,10.37
2023-07-09T07:47:42.203Z,10.90
2023-07-09T07:50:09.749Z,10.65
2023-07-09T07:52:38.415Z,11.10
2023-07-09T07:55:11.741Z,11.60
2023-07-09T07:57:41.566Z,11.30
2023-07-09T08:00:10.416Z,10.70
2023-07-09T08:02:40.063Z,9.23
2023-07-09T08:05:07.359Z,10.85
2023-07-09T08:07:34.542Z,10.52
2023-07-09T08:10:01.384Z,11.37
2023-07-09T08:12:28.197Z,11.82
2023-07-09T08:14:55.134Z,11.45
2023-07-09T08:17:21.987Z,11.43
2023-07-09T08:19:56.857Z,11.68
2023-07-09T08:22:24.024Z,12.20
2023-07-09T08:24:51.882Z,10.48
2023-07-09T08:27:20.814Z,10.88
2023-07-09T08:29:48.319Z,10.25
2023-07-09T08:32:15.879Z,10.80
2023-07-09T08:35:03.199Z,10.60
2023-07-09T08:37:30.359Z,9.50
2023-07-09T08:39:57.229Z,9.60
2023-07-09T08:42:46.849Z,10.15
2023-07-09T08:45:41.181Z,9.07
2023-07-09T08:48:16.623Z,9.40
2023-07-09T08:50:48.083Z,9.00
2023-07-09T08:53:51.445Z,8.75
2023-07-09T08:56:19.685Z,9.95
2023-07-09T08:58:48.620Z,8.80
2023-07-09T09:01:24.251Z,9.20
2023-07-09T09:04:00.302Z,9.55
2023-07-09T09:06:29.327Z,8.73
2023-07-09T09:09:04.224Z,7.82
2023-07-09T09:11:34.457Z,7.60
2023-07-09T09:14:07.301Z,8.70
2023-07-09T09:16:39.574Z,7.60
2023-07-09T09:19:27.836Z,8.52
2023-07-09T09:22:06.075Z,7.93
2023-07-09T09:24:56.455Z,8.05
2023-07-09T09:27:23.425Z,7.10
2023-07-09T09:29:50.366Z,7.75
2023-07-09T09:32:27.596Z,7.07
2023-07-09T09:34:55.843Z,7.22
2023-07-09T09:37:31.511Z,7.50
2023-07-09T09:40:13.644Z,6.77
2023-07-09T09:42:44.092Z,7.07
2023-07-09T09:45:17.410Z,7.30
2023-07-09T09:47:46.345Z,7.18
2023-07-09T09:50:22.460Z,6.82
2023-07-09T09:52:50.541Z,6.93
2023-07-09T09:55:20.975Z,7.10
2023-07-09T09:57:53.573Z,7.05
2023-07-09T10:00:26.337Z,7.07
2023-07-09T10:03:02.641Z,6.60
2023-07-09T10:05:52.943Z,6.97
2023-07-09T10:08:28.986Z,6.20
2023-07-09T10:11:09.309Z,6.47
2023-07-09T10:13:42.808Z,5.55
2023-07-09T10:16:24.702Z,6.20
2023-07-09T10:19:14.616Z,6.90
2023-07-09T10:21:52.801Z,6.97
2023-07-09T10:24:40.675Z,7.57
2023-07-09T10:27:32.576Z,7.55
2023-07-09T10:30:22.279Z,7.63
2023-07-09T10:33:10.705Z,7.50
2023-07-09T10:35:45.850Z,7.40
2023-07-09T10:38:21.349Z,7.05
2023-07-09T10:40:53.197Z,7.07
2023-07-09T10:43:39.730Z,7.45
2023-07-09T10:46:16.815Z,6.90
2023-07-09T10:48:47.580Z,7.50
2023-07-09T10:51:27.147Z,6.38
2023-07-09T10:54:02.882Z,7.28
2023-07-09T10:56:37.088Z,6.70
2023-07-09T10:59:09.590Z,7.50
2023-07-09T11:01:41.612Z,7.32
2023-07-09T11:04:38.838Z,7.18
2023-07-09T11:07:12.607Z,6.68
2023-07-09T11:09:50.413Z,6.72
2023-07-09T11:12:26.247Z,6.77
2023-07-09T11:15:04.468Z,6.40
2023-07-09T11:17:32.140Z,5.90
2023-07-09T11:20:09.957Z,6.30
2023-07-09T11:22:40.957Z,6.28
2023-07-09T11:25:12.801Z,6.37
2023-07-09T11:28:05.381Z,5.90
2023-07-09T11:30:32.407Z,5.78
2023-07-09T11:33:22.187Z,6.45
2023-07-09T11:35:52.902Z,6.45
2023-07-09T11:38:25.091Z,5.97
2023-07-09T11:40:57.067Z,6.57
2023-07-09T11:43:30.133Z,6.30
2023-07-09T11:46:02.515Z,6.78
2023-07-09T11:48:32.640Z,7.07
2023-07-09T11:51:10.165Z,7.57
2023-07-09T11:53:41.390Z,6.75
2023-07-09T11:56:10.295Z,7.25
2023-07-09T11:58:37.384Z,7.00
2023-07-09T12:01:15.181Z,7.25
2023-07-09T12:03:46.490Z,7.10
2023-07-09T12:06:23.992Z,6.95
2023-07-09T12:08:52.507Z,6.75
2023-07-09T12:11:44.844Z,6.60
2023-07-09T12:14:16.387Z,6.68
2023-07-09T12:16:46.700Z,6.43
2023-07-09T12:19:15.687Z,5.60
2023-07-09T12:21:45.579Z,5.80
2023-07-09T12:24:23.566Z,5.50
2023-07-09T12:26:55.169Z,6.05
2023-07-09T12:29:26.652Z,5.77
2023-07-09T12:31:53.548Z,5.47
2023-07-09T12:34:20.486Z,5.13
2023-07-09T12:36:51.029Z,4.93
2023-07-09T12:39:26.857Z,5.55
2023-07-09T12:42:01.387Z,5.20
2023-07-09T12:44:32.694Z,5.68
2023-07-09T12:46:59.732Z,5.03
2023-07-09T12:49:37.761Z,5.25
2023-07-09T12:52:13.066Z,5.30
2023-07-09T12:54:39.972Z,5.17
2023-07-09T12:57:17.920Z,4.72
2023-07-09T12:59:47.127Z,4.90
2023-07-09T13:02:26.290Z,5.05
2023-07-09T13:05:07.657Z,4.95
2023-07-09T13:07:42.803Z,4.90
2023-07-09T13:10:19.731Z,5.28
2023-07-09T13:12:50.233Z,3.90
2023-07-09T13:15:35.986Z,3.08
2023-07-09T13:18:05.554Z,2.60
2023-07-09T13:20:36.066Z,2.60
2023-07-09T13:23:10.914Z,2.65
2023-07-09T13:25:47.785Z,2.30
2023-07-09T13:28:23.229Z,2.92
2023-07-09T13:30:52.780Z,2.97
2023-07-09T13:33:19.812Z,3.40
2023-07-09T13:35:47.981Z,3.47
2023-07-09T13:38:19.927Z,3.30
2023-07-09T13:40:50.697Z,2.97
2023-07-09T13:43:24.297Z,3.50
2023-07-09T13:45:51.285Z,3.60
2023-07-09T13:48:20.542Z,3.85
2023-07-09T13:50:50.800Z,3.70
2023-07-09T13:53:21.506Z,3.67
2023-07-09T13:55:50.511Z,3.60
2023-07-09T13:58:19.380Z,3.43
2023-07-09T14:00:48.640Z,3.50
2023-07-09T14:03:25.539Z,3.58
2023-07-09T14:05:53.819Z,3.60
2023-07-09T14:08:22.793Z,3.65
2023-07-09T14:10:53.520Z,3.43
2023-07-09T14:13:24.547Z,3.30
2023-07-09T14:15:51.396Z,3.20
2023-07-09T14:18:21.985Z,3.30
2023-07-09T14:20:50.086Z,3.40
2023-07-09T14:23:19.192Z,3.37
2023-07-09T14:25:46.414Z,3.50
2023-07-09T14:28:18.780Z,3.50
2023-07-09T14:30:47.411Z,3.40
2023-07-09T14:33:22.387Z,3.47
2023-07-09T14:35:50.769Z,3.83
2023-07-09T14:38:21.850Z,4.97
2023-07-09T14:40:50.645Z,5.45
2023-07-09T14:43:17.652Z,6.60
2023-07-09T14:45:44.740Z,6.70
2023-07-09T14:48:17.355Z,6.53
2023-07-09T14:50:45.089Z,7.07
2023-07-09T14:53:22.979Z,6.88
2023-07-09T14:55:50.064Z,8.40
2023-07-09T14:58:22.593Z,8.75
2023-07-09T15:00:50.043Z,8.90
2023-07-09T15:03:23.623Z,8.85
2023-07-09T15:05:51.111Z,9.15
2023-07-09T15:08:20.867Z,9.48
2023-07-09T15:10:49.060Z,9.80
2023-07-09T15:13:35.291Z,9.50
2023-07-09T15:16:03.925Z,9.25
2023-07-09T15:18:31.143Z,8.27
2023-07-09T15:20:59.654Z,9.13
2023-07-09T15:23:28.290Z,8.52
2023-07-09T15:25:55.735Z,8.10
2023-07-09T15:28:23.084Z,7.43
2023-07-09T15:30:50.043Z,7.40
2023-07-09T15:33:20.437Z,6.10
2023-07-09T15:35:51.523Z,5.63
2023-07-09T15:38:32.947Z,5.10
2023-07-09T15:40:59.872Z,4.45
2023-07-09T15:43:27.206Z,3.60
2023-07-09T15:45:58.451Z,3.28
2023-07-09T15:48:36.863Z,3.40
2023-07-09T15:51:05.822Z,3.53
2023-07-09T15:53:33.598Z,3.67
2023-07-09T15:56:06.621Z,3.78
2023-07-09T15:58:40.747Z,3.88
2023-07-09T16:01:12.632Z,3.70
2023-07-09T16:03:40.108Z,3.60
2023-07-09T16:06:06.993Z,4.00
2023-07-09T16:08:33.851Z,3.35
2023-07-09T16:11:01.296Z,3.47
2023-07-09T16:13:28.931Z,3.55
2023-07-09T16:15:55.992Z,3.50
2023-07-09T16:18:22.990Z,3.65
2023-07-09T16:20:50.743Z,3.33
2023-07-09T16:23:20.673Z,3.78
2023-07-09T16:25:51.102Z,3.80
2023-07-09T16:28:20.666Z,3.87
2023-07-09T16:30:49.573Z,4.18
2023-07-09T16:33:16.485Z,4.10
2023-07-09T16:35:43.723Z,4.18
2023-07-09T16:38:14.256Z,4.25
2023-07-09T16:40:41.316Z,4.27
2023-07-09T16:43:22.145Z,4.50
2023-07-09T16:45:49.474Z,4.57
2023-07-09T16:48:25.664Z,4.40
2023-07-09T16:50:55.157Z,4.70
2023-07-09T16:53:23.246Z,4.40
2023-07-09T16:55:51.131Z,4.53
2023-07-09T16:58:36.405Z,4.20
2023-07-09T17:01:04.237Z,4.63
2023-07-09T17:03:31.604Z,4.68
2023-07-09T17:05:58.705Z,4.63
2023-07-09T17:08:27.828Z,4.68
2023-07-09T17:10:54.957Z,5.22
2023-07-09T17:13:26.765Z,4.78
2023-07-09T17:15:54.116Z,5.20
2023-07-09T17:18:31.125Z,5.63
2023-07-09T17:21:01.374Z,5.80
2023-07-09T17:23:30.977Z,6.93
2023-07-09T17:26:00.448Z,7.70
2023-07-09T17:28:30.104Z,7.60
2023-07-09T17:30:58.024Z,8.27
2023-07-09T17:33:25.765Z,8.07
2023-07-09T17:35:53.758Z,8.50
2023-07-09T17:38:40.231Z,7.80
2023-07-09T17:41:07.315Z,8.25
2023-07-09T17:43:34.227Z,7.80
2023-07-09T17:46:01.235Z,7.32
2023-07-09T17:48:31.303Z,7.28
2023-07-09T17:50:58.789Z,7.05
2023-07-09T17:53:28.411Z,6.88
2023-07-09T17:55:55.800Z,6.27
2023-07-09T17:58:28.606Z,6.25
2023-07-09T18:01:04.000Z,6.38
2023-07-09T18:03:31.180Z,6.30
2023-07-09T18:05:58.294Z,6.55
2023-07-09T18:08:25.301Z,6.17
2023-07-09T18:10:53.209Z,6.20
2023-07-09T18:13:27.629Z,6.68
2023-07-09T18:15:55.661Z,7.00
2023-07-09T18:18:23.401Z,6.70
2023-07-09T18:20:50.555Z,7.43
2023-07-09T18:23:17.541Z,7.22
2023-07-09T18:25:45.965Z,9.15
2023-07-09T18:28:28.099Z,7.00
2023-07-09T18:31:07.455Z,7.13
2023-07-09T18:33:41.973Z,7.63
2023-07-09T18:36:09.135Z,7.50
2023-07-09T18:38:35.958Z,7.05
2023-07-09T18:41:14.199Z,6.70
2023-07-09T18:43:41.063Z,7.68
2023-07-09T18:46:11.259Z,6.53
2023-07-09T18:48:38.152Z,7.78
2023-07-09T18:51:08.909Z,7.82
2023-07-09T18:53:36.133Z,7.32
2023-07-09T18:56:03.672Z,7.30
2023-07-09T18:58:31.019Z,6.80
2023-07-09T19:01:00.045Z,7.35
2023-07-09T19:03:36.644Z,7.20
2023-07-09T19:06:04.465Z,6.65
2023-07-09T19:08:33.579Z,7.20
2023-07-09T19:11:03.087Z,7.93
2023-07-09T19:13:30.709Z,7.90
2023-07-09T19:16:01.727Z,6.72
2023-07-09T19:18:34.348Z,6.03
2023-07-09T19:21:01.439Z,6.50
2023-07-09T19:23:28.624Z,6.77
2023-07-09T19:25:55.614Z,6.43
2023-07-09T19:28:23.559Z,7.10
2023-07-09T19:30:52.809Z,6.90
2023-07-09T19:33:41.084Z,7.70
2023-07-09T19:36:23.728Z,8.23
2023-07-09T19:38:52.627Z,8.80
2023-07-09T19:41:21.062Z,9.15
2023-07-09T19:43:47.966Z,9.55
2023-07-09T19:46:20.228Z,9.20
2023-07-09T19:48:47.213Z,9.20
2023-07-09T19:51:14.510Z,9.30
2023-07-09T19:53:41.367Z,16.50
2023-07-09T19:56:08.302Z,10.90
2023-07-09T19:58:35.240Z,9.15
2023-07-09T20:01:02.607Z,8.10
2023-07-09T20:03:32.936Z,6.53
2023-07-09T20:06:00.591Z,6.65
2023-07-09T20:08:27.667Z,6.05
2023-07-09T20:10:59.200Z,5.53
2023-07-09T20:13:31.503Z,5.20
2023-07-09T20:15:58.872Z,5.00
2023-07-09T20:18:26.834Z,4.70
2023-07-09T20:21:03.802Z,4.57
2023-07-09T20:23:32.040Z,4.78
2023-07-09T20:25:59.644Z,4.60
2023-07-09T20:28:28.783Z,4.10
2023-07-09T20:30:56.682Z,3.88
2023-07-09T20:33:24.849Z,4.72
2023-07-09T20:35:52.641Z,3.97
2023-07-09T20:38:24.615Z,3.73
2023-07-09T20:40:52.096Z,3.78
2023-07-09T20:43:27.737Z,3.90
2023-07-09T20:45:55.448Z,3.35
2023-07-09T20:48:24.582Z,3.28
2023-07-09T20:50:52.507Z,3.50
2023-07-09T20:53:20.448Z,3.35
2023-07-09T20:55:48.550Z,3.40
2023-07-09T20:58:17.568Z,3.50
2023-07-09T21:00:45.507Z,3.33
2023-07-09T21:03:16.390Z,3.17
2023-07-09T21:05:43.477Z,3.60
2023-07-09T21:08:17.191Z,3.28
2023-07-09T21:10:46.041Z,2.83
2023-07-09T21:13:15.477Z,2.83
2023-07-09T21:15:43.431Z,2.60
2023-07-09T21:18:16.646Z,2.60
2023-07-09T21:20:44.188Z,2.90
2023-07-09T21:23:19.345Z,2.83
2023-07-09T21:25:47.082Z,2.83
2023-07-09T21:28:15.032Z,2.50
2023-07-09T21:30:42.457Z,2.97
2023-07-09T21:33:18.122Z,3.33
2023-07-09T21:35:46.704Z,2.80
2023-07-09T21:38:20.205Z,2.83
2023-07-09T21:40:47.793Z,3.10
2023-07-09T21:43:14.678Z,3.60
2023-07-09T21:45:43.725Z,3.13
2023-07-09T21:48:27.089Z,3.40
2023-07-09T21:50:55.278Z,2.78
2023-07-09T21:53:45.894Z,3.53
2023-07-09T21:56:15.165Z,3.15
2023-07-09T21:58:42.229Z,3.28
2023-07-09T22:01:19.994Z,3.15
2023-07-09T22:03:47.336Z,3.10
2023-07-09T22:06:15.008Z,3.00
2023-07-09T22:08:46.876Z,3.20
2023-07-09T22:11:28.065Z,3.38
2023-07-09T22:13:56.885Z,3.00
2023-07-09T22:16:26.469Z,3.45
2023-07-09T22:18:53.444Z,3.30
2023-07-09T22:21:20.330Z,3.22
2023-07-09T22:23:47.241Z,3.22
2023-07-09T22:26:14.188Z,2.80
2023-07-09T22:28:41.752Z,3.33
2023-07-09T22:31:11.255Z,3.13
2023-07-09T22:33:38.236Z,2.88
2023-07-09T22:36:05.670Z,3.03
2023-07-09T22:38:32.990Z,2.55
2023-07-09T22:41:00.651Z,2.72
2023-07-09T22:43:27.492Z,2.83
2023-07-09T22:45:55.721Z,2.72
2023-07-09T22:48:23.169Z,2.72
2023-07-09T22:50:55.475Z,3.00
2023-07-09T22:53:23.938Z,2.85
2023-07-09T22:55:52.535Z,2.70
2023-07-09T22:58:21.392Z,2.83
2023-07-09T23:01:01.847Z,2.65
2023-07-09T23:03:37.992Z,2.90
2023-07-09T23:06:19.860Z,2.92
2023-07-09T23:08:47.782Z,2.73
2023-07-09T23:11:21.564Z,2.60
2023-07-09T23:13:48.861Z,2.58
2023-07-09T23:16:18.014Z,2.72
2023-07-09T23:18:46.136Z,2.92
2023-07-09T23:21:21.571Z,2.70
2023-07-09T23:23:49.622Z,2.45
2023-07-09T23:26:17.596Z,2.53
2023-07-09T23:28:44.440Z,2.50
2023-07-09T23:31:31.151Z,2.60
2023-07-09T23:34:00.029Z,2.73
2023-07-09T23:36:27.841Z,2.85
2023-07-09T23:38:55.128Z,2.67
2023-07-09T23:41:27.808Z,2.33
2023-07-09T23:43:56.957Z,2.33
2023-07-09T23:46:29.309Z,2.40
2023-07-09T23:49:08.646Z,2.10
2023-07-09T23:51:36.819Z,2.47
2023-07-09T23:54:03.711Z,2.13
2023-07-09T23:56:34.846Z,2.55
2023-07-09T23:59:03.233Z,2.50
